createdAt,value
2022-11-14T00:01:04.948Z,47.40
2022-11-14T00:03:31.431Z,47.30
2022-11-14T00:05:57.895Z,47.20
2022-11-14T00:08:24.390Z,47.20
2022-11-14T00:10:50.863Z,47.30
2022-11-14T00:13:17.352Z,47.30
2022-11-14T00:15:43.827Z,47.30
2022-11-14T00:18:10.302Z,47.20
2022-11-14T00:20:36.763Z,47.20
2022-11-14T00:23:03.217Z,47.20
2022-11-14T00:25:30.586Z,47.10
2022-11-14T00:27:57.055Z,47.30
2022-11-14T00:30:23.515Z,47.40
2022-11-14T00:32:49.997Z,47.10
2022-11-14T00:35:16.445Z,47.20
2022-11-14T00:37:42.895Z,47.10
2022-11-14T00:40:09.344Z,47.20
2022-11-14T00:42:35.814Z,47.00
2022-11-14T00:45:02.291Z,47.10
2022-11-14T00:47:28.770Z,47.30
2022-11-14T00:49:55.247Z,47.00
2022-11-14T00:52:21.693Z,47.20
2022-11-14T00:54:48.158Z,47.10
2022-11-14T00:57:14.611Z,47.20
2022-11-14T00:59:41.082Z,47.00
2022-11-14T01:02:07.539Z,47.00
2022-11-14T01:04:34.011Z,46.90
2022-11-14T01:07:00.472Z,47.00
2022-11-14T01:09:26.981Z,46.90
2022-11-14T01:11:53.536Z,46.90
2022-11-14T01:14:20.016Z,46.80
2022-11-14T01:16:46.475Z,46.90
2022-11-14T01:19:12.964Z,46.80
2022-11-14T01:21:39.411Z,46.80
2022-11-14T01:24:05.912Z,46.90
2022-11-14T01:26:32.388Z,46.80
2022-11-14T01:28:58.865Z,46.90
2022-11-14T01:31:25.330Z,46.70
2022-11-14T01:33:51.798Z,46.90
2022-11-14T01:36:18.254Z,46.90
2022-11-14T01:38:44.738Z,46.70
2022-11-14T01:41:11.211Z,46.70
2022-11-14T01:43:37.677Z,46.80
2022-11-14T01:46:04.138Z,46.80
2022-11-14T01:48:30.873Z,46.80
2022-11-14T01:50:57.531Z,46.80
2022-11-14T01:53:24.029Z,46.60
2022-11-14T01:55:50.483Z,46.60
2022-11-14T01:58:16.950Z,46.70
2022-11-14T02:00:49.221Z,46.60
2022-11-14T02:03:15.670Z,46.80
2022-11-14T02:05:42.136Z,46.70
2022-11-14T02:08:13.308Z,46.50
2022-11-14T02:10:39.821Z,46.60
2022-11-14T02:13:06.291Z,46.60
2022-11-14T02:15:33.653Z,46.80
2022-11-14T02:18:00.111Z,46.50
2022-11-14T02:20:26.583Z,46.70
2022-11-14T02:22:53.041Z,46.40
2022-11-14T02:25:19.496Z,46.70
2022-11-14T02:27:45.969Z,46.40
2022-11-14T02:30:12.440Z,46.50
2022-11-14T02:35:25.379Z,46.60
2022-11-14T02:37:51.846Z,46.50
2022-11-14T02:40:18.314Z,46.40
2022-11-14T02:42:44.765Z,46.50
2022-11-14T02:45:11.233Z,46.50
2022-11-14T02:47:37.674Z,46.30
2022-11-14T02:50:04.139Z,46.50
2022-11-14T02:52:30.612Z,46.30
2022-11-14T02:54:57.071Z,46.50
2022-11-14T02:57:23.534Z,46.40
2022-11-14T02:59:50.008Z,46.10
2022-11-14T03:02:16.469Z,46.30
2022-11-14T03:04:42.933Z,46.30
2022-11-14T03:07:09.479Z,46.30
2022-11-14T03:09:35.956Z,46.10
2022-11-14T03:12:02.410Z,46.30
2022-11-14T03:14:28.875Z,46.10
2022-11-14T03:16:55.341Z,46.30
2022-11-14T03:19:21.816Z,46.10
2022-11-14T03:21:48.289Z,46.10
2022-11-14T03:24:14.758Z,46.10
2022-11-14T03:26:41.218Z,46.10
2022-11-14T03:29:07.686Z,46.10
2022-11-14T03:31:34.149Z,46.10
2022-11-14T03:34:00.632Z,46.10
2022-11-14T03:36:27.098Z,46.10
2022-11-14T03:38:53.551Z,46.00
2022-11-14T03:41:20.000Z,45.90
2022-11-14T03:43:46.470Z,46.00
2022-11-14T03:46:12.960Z,46.00
2022-11-14T03:48:39.436Z,45.90
2022-11-14T03:51:05.912Z,46.00
2022-11-14T03:53:32.384Z,45.80
2022-11-14T03:55:58.841Z,45.80
2022-11-14T03:58:25.318Z,45.80
2022-11-14T04:00:51.842Z,45.80
2022-11-14T04:03:18.358Z,46.00
2022-11-14T04:05:44.841Z,45.70
2022-11-14T04:08:11.327Z,45.80
2022-11-14T04:10:37.797Z,45.70
2022-11-14T04:13:04.251Z,45.60
2022-11-14T04:15:30.707Z,45.60
2022-11-14T04:17:57.167Z,45.60
2022-11-14T04:20:25.336Z,45.60
2022-11-14T04:22:51.783Z,45.50
2022-11-14T04:25:18.254Z,45.60
2022-11-14T04:27:44.703Z,45.70
2022-11-14T04:30:11.172Z,45.50
2022-11-14T04:32:37.632Z,45.50
2022-11-14T04:35:04.178Z,45.60
2022-11-14T04:37:30.650Z,45.50
2022-11-14T04:39:57.132Z,45.60
2022-11-14T04:42:23.603Z,45.60
2022-11-14T04:44:50.098Z,45.50
2022-11-14T04:47:16.578Z,45.30
2022-11-14T04:49:43.050Z,45.30
2022-11-14T04:52:09.528Z,45.40
2022-11-14T04:54:36.014Z,45.40
2022-11-14T04:57:02.482Z,45.50
2022-11-14T04:59:28.969Z,45.30
2022-11-14T05:01:55.447Z,45.50
2022-11-14T05:04:21.945Z,45.50
2022-11-14T05:06:48.425Z,45.30
2022-11-14T05:09:19.364Z,45.20
2022-11-14T05:11:45.834Z,45.30
2022-11-14T05:14:12.306Z,45.30
2022-11-14T05:16:38.754Z,45.30
2022-11-14T05:19:05.226Z,45.10
2022-11-14T05:21:31.689Z,45.00
2022-11-14T05:23:58.165Z,45.00
2022-11-14T05:26:24.629Z,45.10
2022-11-14T05:28:51.091Z,45.20
2022-11-14T05:31:17.558Z,45.20
2022-11-14T05:33:44.036Z,45.00
2022-11-14T05:36:10.505Z,44.90
2022-11-14T05:38:36.983Z,45.00
2022-11-14T05:41:03.438Z,45.00
2022-11-14T05:43:29.963Z,44.80
2022-11-14T05:45:56.420Z,44.90
2022-11-14T05:48:22.891Z,45.50
2022-11-14T05:50:49.346Z,44.50
2022-11-14T05:53:15.830Z,44.70
2022-11-14T05:55:42.310Z,44.90
2022-11-14T05:58:08.799Z,44.80
2022-11-14T06:00:42.416Z,44.70
2022-11-14T06:03:13.186Z,44.70
2022-11-14T06:05:39.666Z,44.80
2022-11-14T06:08:06.110Z,44.70
2022-11-14T06:10:32.575Z,44.90
2022-11-14T06:12:59.024Z,44.60
2022-11-14T06:15:25.473Z,44.80
2022-11-14T06:17:51.920Z,44.80
2022-11-14T06:20:18.391Z,44.70
2022-11-14T06:22:44.839Z,44.40
2022-11-14T06:25:11.296Z,44.60
2022-11-14T06:27:37.762Z,44.80
2022-11-14T06:30:04.235Z,44.70
2022-11-14T06:32:30.688Z,44.80
2022-11-14T06:34:57.150Z,44.80
2022-11-14T06:37:25.431Z,44.60
2022-11-14T06:39:55.439Z,44.80
2022-11-14T06:42:21.906Z,44.60
2022-11-14T06:44:48.380Z,44.60
2022-11-14T06:47:14.840Z,44.60
2022-11-14T06:49:41.299Z,44.50
2022-11-14T06:52:07.766Z,44.60
2022-11-14T06:54:34.243Z,44.40
2022-11-14T06:57:00.700Z,44.40
2022-11-14T06:59:27.291Z,44.60
2022-11-14T07:01:53.753Z,44.50
2022-11-14T07:04:20.207Z,44.70
2022-11-14T07:06:46.693Z,44.40
2022-11-14T07:09:13.195Z,44.70
2022-11-14T07:11:39.679Z,44.50
2022-11-14T07:14:06.157Z,44.10
2022-11-14T07:16:32.619Z,44.30
2022-11-14T07:18:59.097Z,44.50
2022-11-14T07:21:25.554Z,44.30
2022-11-14T07:23:52.059Z,44.30
2022-11-14T07:26:18.526Z,44.20
2022-11-14T07:28:48.093Z,44.50
2022-11-14T07:31:18.355Z,44.50
2022-11-14T07:33:44.813Z,44.50
2022-11-14T07:36:11.279Z,44.50
2022-11-14T07:38:37.750Z,44.50
2022-11-14T07:41:04.233Z,44.50
2022-11-14T07:43:30.736Z,44.40
2022-11-14T07:46:01.651Z,44.30
2022-11-14T07:48:28.560Z,44.30
2022-11-14T07:50:55.320Z,44.50
2022-11-14T07:53:21.804Z,44.40
2022-11-14T07:55:48.276Z,44.50
2022-11-14T07:58:14.779Z,44.50
2022-11-14T08:00:41.275Z,44.40
2022-11-14T08:03:07.781Z,44.60
2022-11-14T08:05:34.245Z,44.50
2022-11-14T08:08:00.697Z,44.60
2022-11-14T08:10:32.346Z,44.50
2022-11-14T08:13:17.595Z,44.50
2022-11-14T08:15:49.539Z,44.40
2022-11-14T08:18:16.012Z,44.30
2022-11-14T08:20:42.477Z,44.40
2022-11-14T08:23:13.535Z,44.40
2022-11-14T08:25:40.034Z,44.30
2022-11-14T08:28:06.504Z,44.40
2022-11-14T08:30:32.964Z,44.60
2022-11-14T08:32:59.426Z,44.50
2022-11-14T08:35:25.900Z,44.60
2022-11-14T08:37:52.364Z,44.60
2022-11-14T08:40:18.839Z,44.40
2022-11-14T08:42:45.286Z,44.50
2022-11-14T08:45:11.760Z,44.50
2022-11-14T08:47:38.212Z,44.50
2022-11-14T08:50:04.743Z,44.60
2022-11-14T08:52:31.223Z,44.70
2022-11-14T08:54:57.701Z,44.60
2022-11-14T08:57:24.161Z,44.80
2022-11-14T08:59:50.639Z,44.70
2022-11-14T09:02:17.119Z,44.60
2022-11-14T09:04:43.658Z,44.60
2022-11-14T09:07:10.218Z,44.70
2022-11-14T09:09:36.744Z,44.80
2022-11-14T09:12:03.215Z,44.80
2022-11-14T09:14:29.683Z,44.80
2022-11-14T09:16:56.162Z,44.80
2022-11-14T09:19:22.624Z,45.00
2022-11-14T09:21:49.090Z,45.00
2022-11-14T09:24:15.553Z,45.00
2022-11-14T09:26:42.022Z,44.90
2022-11-14T09:29:13.592Z,44.80
2022-11-14T09:31:40.054Z,45.00
2022-11-14T09:34:06.551Z,45.00
2022-11-14T09:36:33.029Z,45.00
2022-11-14T09:38:59.516Z,45.00
2022-11-14T09:41:25.974Z,45.00
2022-11-14T09:43:52.451Z,45.10
2022-11-14T09:46:18.929Z,45.00
2022-11-14T09:48:45.403Z,45.20
2022-11-14T09:51:11.888Z,45.00
2022-11-14T09:53:38.401Z,45.60
2022-11-14T09:56:04.871Z,45.10
2022-11-14T09:58:31.646Z,45.20
2022-11-14T10:00:58.438Z,45.30
2022-11-14T10:03:25.573Z,45.20
2022-11-14T10:05:52.066Z,45.30
2022-11-14T10:08:19.579Z,45.20
2022-11-14T10:10:46.052Z,45.20
2022-11-14T10:13:12.521Z,45.20
2022-11-14T10:15:38.979Z,45.20
2022-11-14T10:18:05.445Z,45.20
2022-11-14T10:20:31.923Z,45.30
2022-11-14T10:23:01.374Z,45.30
2022-11-14T10:25:28.272Z,45.40
2022-11-14T10:27:58.544Z,45.50
2022-11-14T10:30:27.469Z,45.30
2022-11-14T10:32:53.920Z,45.50
2022-11-14T10:35:20.386Z,45.50
2022-11-14T10:37:46.855Z,45.50
2022-11-14T10:40:13.334Z,45.30
2022-11-14T10:42:39.809Z,45.50
2022-11-14T10:45:06.297Z,45.50
2022-11-14T10:47:32.767Z,45.60
2022-11-14T10:49:59.263Z,45.80
2022-11-14T10:52:26.852Z,45.60
2022-11-14T10:54:53.305Z,45.70
2022-11-14T10:57:19.765Z,45.70
2022-11-14T10:59:46.450Z,45.70
2022-11-14T11:02:12.955Z,45.70
2022-11-14T11:04:39.421Z,45.90
2022-11-14T11:07:07.675Z,46.40
2022-11-14T11:09:34.266Z,45.60
2022-11-14T11:12:01.680Z,45.50
2022-11-14T11:14:28.208Z,45.70
2022-11-14T11:16:54.696Z,45.90
2022-11-14T11:19:21.166Z,45.70
2022-11-14T11:21:47.726Z,45.90
2022-11-14T11:24:14.229Z,45.90
2022-11-14T11:26:40.692Z,45.90
2022-11-14T11:29:07.154Z,45.70
2022-11-14T11:31:33.617Z,45.70
2022-11-14T11:34:00.111Z,46.00
2022-11-14T11:36:26.581Z,46.00
2022-11-14T11:38:53.041Z,45.90
2022-11-14T11:41:33.352Z,45.90
2022-11-14T11:44:05.966Z,45.90
2022-11-14T11:46:32.449Z,45.90
2022-11-14T11:48:58.919Z,46.00
2022-11-14T11:51:25.399Z,45.90
2022-11-14T11:53:51.863Z,46.00
2022-11-14T11:56:18.313Z,45.90
2022-11-14T11:58:44.778Z,46.00
2022-11-14T12:01:11.203Z,45.90
2022-11-14T12:03:38.052Z,46.20
2022-11-14T12:06:04.864Z,46.10
2022-11-14T12:08:31.334Z,46.30
2022-11-14T12:11:01.713Z,46.10
2022-11-14T12:13:28.452Z,46.20
2022-11-14T12:15:55.718Z,46.00
2022-11-14T12:18:22.168Z,46.00
2022-11-14T12:20:48.646Z,46.10
2022-11-14T12:23:15.113Z,46.10
2022-11-14T12:25:41.591Z,46.00
2022-11-14T12:28:08.096Z,46.30
2022-11-14T12:30:34.653Z,46.30
2022-11-14T12:33:01.143Z,46.20
2022-11-14T12:35:27.685Z,46.20
2022-11-14T12:37:55.866Z,46.50
2022-11-14T12:40:22.565Z,46.50
2022-11-14T12:42:49.030Z,46.40
2022-11-14T12:45:15.529Z,46.60
2022-11-14T12:47:41.986Z,46.50
2022-11-14T12:50:08.475Z,46.60
2022-11-14T12:52:34.949Z,46.70
2022-11-14T12:55:01.431Z,46.60
2022-11-14T12:57:27.896Z,46.60
2022-11-14T12:59:54.354Z,46.50
2022-11-14T13:02:22.542Z,46.60
2022-11-14T13:04:49.285Z,46.60
2022-11-14T13:07:15.781Z,46.60
2022-11-14T13:09:43.732Z,46.70
2022-11-14T13:12:10.166Z,46.70
2022-11-14T13:14:36.645Z,46.70
2022-11-14T13:17:03.128Z,46.60
2022-11-14T13:19:29.600Z,46.70
2022-11-14T13:21:56.050Z,46.80
2022-11-14T13:24:22.511Z,46.70
2022-11-14T13:26:48.983Z,46.80
2022-11-14T13:29:15.456Z,46.90
2022-11-14T13:31:41.951Z,46.90
2022-11-14T13:34:08.421Z,47.00
2022-11-14T13:36:34.908Z,46.80
2022-11-14T13:39:01.366Z,46.70
2022-11-14T13:41:28.078Z,47.00
2022-11-14T13:43:57.405Z,46.60
2022-11-14T13:46:23.859Z,46.70
2022-11-14T13:48:50.391Z,46.70
2022-11-14T13:51:41.841Z,46.80
2022-11-14T13:54:03.322Z,46.70
2022-11-14T13:56:29.787Z,46.90
2022-11-14T13:58:56.262Z,46.90
2022-11-14T14:01:22.787Z,46.90
2022-11-14T14:03:49.311Z,46.90
2022-11-14T14:06:15.931Z,46.90
2022-11-14T14:08:42.437Z,46.90
2022-11-14T14:11:08.912Z,47.00
2022-11-14T14:13:35.395Z,47.20
2022-11-14T14:16:01.879Z,47.30
2022-11-14T14:18:28.604Z,47.10
2022-11-14T14:20:55.843Z,47.10
2022-11-14T14:23:22.343Z,47.10
2022-11-14T14:25:48.843Z,47.10
2022-11-14T14:28:15.300Z,47.10
2022-11-14T14:30:41.779Z,47.20
2022-11-14T14:33:08.237Z,47.30
2022-11-14T14:35:40.202Z,47.40
2022-11-14T14:38:07.257Z,47.30
2022-11-14T14:40:33.721Z,47.30
2022-11-14T14:43:00.204Z,47.30
2022-11-14T14:45:26.675Z,47.40
2022-11-14T14:47:53.159Z,47.30
2022-11-14T14:50:19.642Z,47.30
2022-11-14T14:52:49.846Z,47.30
2022-11-14T14:55:16.321Z,47.40
2022-11-14T14:57:42.803Z,47.40
2022-11-14T15:00:14.073Z,47.50
2022-11-14T15:02:40.551Z,47.50
2022-11-14T15:05:07.020Z,47.50
2022-11-14T15:07:33.520Z,47.60
2022-11-14T15:09:59.983Z,47.70
2022-11-14T15:12:26.446Z,47.60
2022-11-14T15:14:52.913Z,47.60
2022-11-14T15:17:19.381Z,47.60
2022-11-14T15:19:45.844Z,47.70
2022-11-14T15:22:12.329Z,47.50
2022-11-14T15:24:38.787Z,47.50
2022-11-14T15:27:05.268Z,47.60
2022-11-14T15:29:31.737Z,47.60
2022-11-14T15:31:58.204Z,47.60
2022-11-14T15:34:24.620Z,47.60
2022-11-14T15:36:51.096Z,47.60
2022-11-14T15:39:17.559Z,47.60
2022-11-14T15:41:44.017Z,47.60
2022-11-14T15:44:10.472Z,47.60
2022-11-14T15:46:36.942Z,47.60
2022-11-14T15:49:03.417Z,47.50
2022-11-14T15:51:29.901Z,47.60
2022-11-14T15:53:56.370Z,47.70
2022-11-14T15:56:22.864Z,47.60
2022-11-14T15:58:49.693Z,47.70
2022-11-14T16:01:16.343Z,47.90
2022-11-14T16:03:42.858Z,47.80
2022-11-14T16:06:09.355Z,48.00
2022-11-14T16:08:35.826Z,47.90
2022-11-14T16:11:02.290Z,48.00
2022-11-14T16:13:29.033Z,47.90
2022-11-14T16:15:55.756Z,47.80
2022-11-14T16:18:22.212Z,47.90
2022-11-14T16:20:48.690Z,47.80
2022-11-14T16:23:15.156Z,48.00
2022-11-14T16:25:41.624Z,48.00
2022-11-14T16:28:08.096Z,47.90
2022-11-14T16:30:34.574Z,48.00
2022-11-14T16:33:01.025Z,47.90
2022-11-14T16:35:27.501Z,48.00
2022-11-14T16:37:53.976Z,47.80
2022-11-14T16:40:20.511Z,47.80
2022-11-14T16:42:46.975Z,47.80
2022-11-14T16:45:13.553Z,47.90
2022-11-14T16:47:40.075Z,48.10
2022-11-14T16:50:06.558Z,48.00
2022-11-14T16:52:33.022Z,48.00
2022-11-14T16:54:59.477Z,48.00
2022-11-14T16:57:26.124Z,48.10
2022-11-14T16:59:52.576Z,48.20
2022-11-14T17:02:19.111Z,48.10
2022-11-14T17:04:45.634Z,48.00
2022-11-14T17:07:12.180Z,48.00
2022-11-14T17:09:38.664Z,48.10
2022-11-14T17:12:05.135Z,48.00
2022-11-14T17:14:31.592Z,48.00
2022-11-14T17:17:01.648Z,48.00
2022-11-14T17:19:28.091Z,48.00
2022-11-14T17:21:54.538Z,48.00
2022-11-14T17:24:21.010Z,48.10
2022-11-14T17:26:47.536Z,48.10
2022-11-14T17:29:13.993Z,48.10
2022-11-14T17:31:45.809Z,48.10
2022-11-14T17:34:13.413Z,48.20
2022-11-14T17:36:39.895Z,48.30
2022-11-14T17:39:06.368Z,48.30
2022-11-14T17:41:32.834Z,48.30
2022-11-14T17:43:59.296Z,48.30
2022-11-14T17:46:25.784Z,48.30
2022-11-14T17:48:52.234Z,48.20
2022-11-14T17:54:14.005Z,48.30
2022-11-14T17:56:46.495Z,48.40
2022-11-14T17:59:15.078Z,48.40
2022-11-14T18:01:41.596Z,48.30
2022-11-14T18:04:08.067Z,48.40
2022-11-14T18:06:34.543Z,48.40
2022-11-14T18:09:01.011Z,48.30
2022-11-14T18:11:27.476Z,48.30
2022-11-14T18:13:53.938Z,48.40
2022-11-14T18:16:20.428Z,48.50
2022-11-14T18:18:46.935Z,48.40
2022-11-14T18:21:13.409Z,48.40
2022-11-14T18:23:39.879Z,48.50
2022-11-14T18:26:06.373Z,48.60
2022-11-14T18:28:33.211Z,48.50
2022-11-14T18:30:59.860Z,48.60
2022-11-14T18:33:26.338Z,48.70
2022-11-14T18:35:52.815Z,48.60
2022-11-14T18:38:19.290Z,48.50
2022-11-14T18:40:45.754Z,48.60
2022-11-14T18:43:12.201Z,48.50
2022-11-14T18:45:38.652Z,48.80
2022-11-14T18:48:05.095Z,48.60
2022-11-14T18:50:31.582Z,48.50
2022-11-14T18:53:01.164Z,48.80
2022-11-14T18:55:27.622Z,48.60
2022-11-14T18:57:54.108Z,48.80
2022-11-14T19:00:20.636Z,48.70
2022-11-14T19:02:50.086Z,48.50
2022-11-14T19:05:16.601Z,48.70
2022-11-14T19:07:43.062Z,48.70
2022-11-14T19:10:09.541Z,48.60
2022-11-14T19:12:36.031Z,48.70
2022-11-14T19:15:02.503Z,49.00
2022-11-14T19:17:28.970Z,49.00
2022-11-14T19:19:55.474Z,48.80
2022-11-14T19:22:21.934Z,49.40
2022-11-14T19:24:48.427Z,49.20
2022-11-14T19:27:14.890Z,49.20
2022-11-14T19:29:41.360Z,49.70
2022-11-14T19:32:07.826Z,49.50
2022-11-14T19:34:34.318Z,49.30
2022-11-14T19:37:01.439Z,49.30
2022-11-14T19:39:27.977Z,49.60
2022-11-14T19:41:54.439Z,49.90
2022-11-14T19:44:20.909Z,49.70
2022-11-14T19:46:48.200Z,49.40
2022-11-14T19:49:14.867Z,49.20
2022-11-14T19:51:41.349Z,49.00
2022-11-14T19:54:07.821Z,49.10
2022-11-14T19:56:34.278Z,49.10
2022-11-14T19:59:00.744Z,49.60
2022-11-14T20:01:27.262Z,49.50
2022-11-14T20:03:53.801Z,49.50
2022-11-14T20:06:20.276Z,49.50
2022-11-14T20:08:46.758Z,49.50
2022-11-14T20:11:13.249Z,49.40
2022-11-14T20:13:39.720Z,49.60
2022-11-14T20:16:06.186Z,49.20
2022-11-14T20:18:32.651Z,49.20
2022-11-14T20:20:59.129Z,49.10
2022-11-14T20:23:25.599Z,49.10
2022-11-14T20:25:52.142Z,49.30
2022-11-14T20:28:18.600Z,49.20
2022-11-14T20:30:45.069Z,49.20
2022-11-14T20:33:11.538Z,49.20
2022-11-14T20:35:38.000Z,49.20
2022-11-14T20:38:04.947Z,49.10
2022-11-14T20:40:31.483Z,49.10
2022-11-14T20:42:57.938Z,49.20
2022-11-14T20:45:24.412Z,49.00
2022-11-14T20:47:50.872Z,48.90
2022-11-14T20:50:17.349Z,49.00
2022-11-14T20:52:43.817Z,49.00
2022-11-14T20:55:11.966Z,49.00
2022-11-14T20:57:38.570Z,49.00
2022-11-14T21:00:05.045Z,49.00
2022-11-14T21:02:31.502Z,49.00
2022-11-14T21:04:57.964Z,49.00
2022-11-14T21:07:24.540Z,49.00
2022-11-14T21:09:51.111Z,49.00
2022-11-14T21:12:17.587Z,48.90
2022-11-14T21:14:44.047Z,49.00
2022-11-14T21:17:10.525Z,49.60
2022-11-14T21:19:36.994Z,48.80
2022-11-14T21:22:03.468Z,48.80
2022-11-14T21:24:29.956Z,49.00
2022-11-14T21:26:56.426Z,48.90
2022-11-14T21:29:22.884Z,48.90
2022-11-14T21:31:49.351Z,49.00
2022-11-14T21:34:15.827Z,49.00
2022-11-14T21:36:45.515Z,48.90
2022-11-14T21:39:12.990Z,49.00
2022-11-14T21:41:39.644Z,48.90
2022-11-14T21:44:06.118Z,48.80
2022-11-14T21:46:32.583Z,49.00
2022-11-14T21:48:59.060Z,48.90
2022-11-14T21:51:25.521Z,48.90
2022-11-14T21:53:51.993Z,48.90
2022-11-14T21:56:18.458Z,48.80
2022-11-14T21:58:44.927Z,48.80
2022-11-14T22:01:11.396Z,48.80
2022-11-14T22:03:38.202Z,48.90
2022-11-14T22:06:04.674Z,48.80
2022-11-14T22:08:32.209Z,49.00
2022-11-14T22:10:58.679Z,48.90
2022-11-14T22:13:25.166Z,49.00
2022-11-14T22:15:51.632Z,49.00
2022-11-14T22:18:18.100Z,48.90
2022-11-14T22:20:44.558Z,48.90
2022-11-14T22:23:11.047Z,49.00
2022-11-14T22:25:37.495Z,48.80
2022-11-14T22:28:03.983Z,48.90
2022-11-14T22:30:30.426Z,48.90
2022-11-14T22:32:56.907Z,48.80
2022-11-14T22:35:23.374Z,48.80
2022-11-14T22:37:49.842Z,48.90
2022-11-14T22:40:16.292Z,48.90
2022-11-14T22:42:42.762Z,48.90
2022-11-14T22:45:09.213Z,48.90
2022-11-14T22:47:35.682Z,49.00
2022-11-14T22:50:02.159Z,49.00
2022-11-14T22:52:28.622Z,49.00
2022-11-14T22:54:55.096Z,49.00
2022-11-14T22:57:21.564Z,49.00
2022-11-14T22:59:48.234Z,49.00
2022-11-14T23:02:14.752Z,49.20
2022-11-14T23:04:41.238Z,49.20
2022-11-14T23:07:07.738Z,50.00
2022-11-14T23:09:34.264Z,49.20
2022-11-14T23:12:00.740Z,49.20
2022-11-14T23:14:32.267Z,49.20
2022-11-14T23:16:58.712Z,49.20
2022-11-14T23:19:25.159Z,49.20
2022-11-14T23:21:51.654Z,49.20
2022-11-14T23:24:18.135Z,49.10
2022-11-14T23:26:44.578Z,49.20
2022-11-14T23:29:14.272Z,49.30
2022-11-14T23:31:40.732Z,49.30
2022-11-14T23:34:07.211Z,49.30
2022-11-14T23:36:33.670Z,49.30
2022-11-14T23:39:00.142Z,49.40
2022-11-14T23:41:26.599Z,49.40
2022-11-14T23:43:53.052Z,49.40
2022-11-14T23:46:19.498Z,49.30
2022-11-14T23:48:45.964Z,49.30
2022-11-14T23:51:14.263Z,49.30
2022-11-14T23:53:40.733Z,49.40
2022-11-14T23:56:08.235Z,49.30
2022-11-14T23:58:38.289Z,49.50
